Scottsburg, OR

4:59 PM PST on February 10, 2016 (GMT -0800)
RAWS | | Change Station
CLOSE
Current Station
Personal Weather Station
Location: Reedsport, OR
Elevation: 1220 ft
Nearby Weather Stations

Elev 1220 ft 43.67 °N, 123.94 °W | Updated 51 minutes ago

Overcast
Overcast
55.0 °F
Feels Like 55.0 °F
N
4.0
Wind Variable Wind from North
Gusts 8.0 mph

Today
High -- | Low -- °F
--% Chance of Precip.
Yesterday
High -- | Low -- °F
Precip. -- in
Pressure 30.28 in
Visibility 10.0 miles
Clouds Mostly Cloudy 5500 ft
Overcast 7000 ft
Dew Point 51.0 °F
Humidity 86%
Rainfall in
Snow Depth Not available.
7:21 AM 5:38 PM
Waxing Crescent, 8% visible
METAR KOTH 110055Z 02003KT 10SM BKN055 OVC070 13/12 A3028 RMK AO1
Pressure 30.28 in
Visibility 10.0 miles
Clouds Mostly Cloudy 5500 ft
Overcast 7000 ft
Dew Point 51.0 °F
Humidity 86%
Rainfall in
Snow Depth Not available.
7:21 AM 5:38 PM
Waxing Crescent, 8% visible
METAR KOTH 110055Z 02003KT 10SM BKN055 OVC070 13/12 A3028 RMK AO1

10-Day Weather Forecast

Almanac

Astronomy

Feb. 10, 2016 Rise Set
Actual Time
Civil Twilight
Nautical Twilight
Astronomical Twilight
Moon
Length of Visible Light
Length of Day
Tomorrow will be .
, % of the Moon is Illuminated

Today's Extremes

State Highs State Lows

Community

WunderPhotos

Upload Photos

1,891,948 photos uploaded!

WunderBlog® & News

Nearby

Air Quality

  Air Quality AQ Index Pollutant
Not available.

Snow Depth

Station Depth Elevation

Earthquake Activity

City Distance Mag. Time & Date
Minimum magnitude displayed is 2.5.

Coastal Water Temperatures

Place Temperature

Stations

Nearby Weather Stations

Station Location Temp. Windchill Dew Point Humidity Wind Precip. Elev Updated Type
                   

Watches & Warnings

There are currently no watches in effect.